首页
METAR-TAF:

METAR-TAF

机场 :

基蘇木, 肯尼亚

纬度: 00-06S, 经度: 034-45E, 海拔: 1157米

当前天气观测

该预报发布于4小时和51分钟前的19:00 UTC
风速4节,风向东转东北
温度 21°C
湿度 88%
气压 1017 hPa
能见度10公里或以上
少量云层高于1800英尺, 积雨云.
散云层高于1900英尺
多云层高于8000英尺
雷暴, 小雨

METAR: HKKI 091900Z 07004KT 9999 -TSRA FEW018CB SCT019 BKN080 21/19 Q1017

时间: 02:51 (23:51 UTC)

预报

该预报发布于51分钟前的23:00 UTC
预报有效从10日的 00点(UTC)到 10日的 24点(UTC)
风速5节,风向多变
能见度10公里或以上
散云层高于1800英尺
多云层高于8000英尺
小雨
短暂存在
从 10日的 00点(UTC)到 10日的 06点(UTC)
少量云层高于1800英尺, 积雨云.
散云层高于1900英尺
多云层高于9000英尺
成为
从 10日的 08点(UTC)到 10日的 11点(UTC)
风速10节,风向西转西南
少量云层高于2200英尺, 积雨云.
散云层高于2300英尺
多云层高于8000英尺
短暂存在
从 10日的 12点(UTC)到 10日的 18点(UTC)
少量云层高于2000英尺, 积雨云.
多云层高于2100英尺
多云层高于8000英尺
雷暴, 小雨
成为
从 10日的 21点(UTC)到 10日的 24点(UTC)
风速5节,风向多变
散云层高于1800英尺
多云层高于8000英尺
小雨

TAF: HKKI 092300Z 1000/1024 VRB05KT 9999 -RA SCT018 BKN080 TEMPO 1000/1006 NSW FEW018CB SCT019 BKN090 BECMG 1008/1011 24010KT FEW022CB SCT023 BKN080 TEMPO 1012/1018 -TSRA FEW020CB BKN021 BKN080 BECMG 1021/1024 VRB05KT -RA SCT018 BKN080

超过4000个机场的气象观测和天气预报(METAR&TAF报告)。

可查询的气象台以黄色和红色小点在地图上表示。

将鼠标移到小点上方,可查看气象台名称。

然后点击查看天气观测和预报。

如需切换地图:点击带黑十字的绿色按钮放大地图;点击带横线的绿色按钮缩小地图;或者点击绿色箭头查看邻近地区的地图。


METAR-TAF: